sensor_id;sensor_type;location;lat;lon;timestamp;temperature;humidity
75380;HTU21D;65641;44.714;37.756;2024-01-15T00:00:51;6.93;83.09
75380;HTU21D;65641;44.714;37.756;2024-01-15T00:01:54;6.93;83.22
75380;HTU21D;65641;44.714;37.756;2024-01-15T00:02:58;6.94;83.21
75380;HTU21D;65641;44.714;37.756;2024-01-15T00:04:02;6.96;83.13
75380;HTU21D;65641;44.714;37.756;2024-01-15T00:05:06;6.95;83.09
75380;HTU21D;65641;44.714;37.756;2024-01-15T00:06:10;6.93;83.10
75380;HTU21D;65641;44.714;37.756;2024-01-15T00:07:13;6.94;83.04
75380;HTU21D;65641;44.714;37.756;2024-01-15T00:08:17;6.96;83.11
75380;HTU21D;65641;44.714;37.756;2024-01-15T00:09:21;6.95;83.06
75380;HTU21D;65641;44.714;37.756;2024-01-15T00:10:24;6.95;83.12
75380;HTU21D;65641;44.714;37.756;2024-01-15T00:11:30;6.95;83.16
75380;HTU21D;65641;44.714;37.756;2024-01-15T00:12:33;6.96;83.16
75380;HTU21D;65641;44.714;37.756;2024-01-15T00:13:37;6.97;83.29
75380;HTU21D;65641;44.714;37.756;2024-01-15T00:14:40;6.97;83.05
75380;HTU21D;65641;44.714;37.756;2024-01-15T00:15:45;6.97;83.23
75380;HTU21D;65641;44.714;37.756;2024-01-15T00:16:49;6.97;83.07
75380;HTU21D;65641;44.714;37.756;2024-01-15T00:17:54;6.99;83.23
75380;HTU21D;65641;44.714;37.756;2024-01-15T00:18:57;6.98;83.10
75380;HTU21D;65641;44.714;37.756;2024-01-15T00:20:01;7.00;83.22
75380;HTU21D;65641;44.714;37.756;2024-01-15T00:21:06;7.00;83.26
75380;HTU21D;65641;44.714;37.756;2024-01-15T00:22:28;7.01;83.31
75380;HTU21D;65641;44.714;37.756;2024-01-15T00:23:33;7.00;83.35
75380;HTU21D;65641;44.714;37.756;2024-01-15T00:24:36;7.01;83.26
75380;HTU21D;65641;44.714;37.756;2024-01-15T00:26:00;7.02;83.49
75380;HTU21D;65641;44.714;37.756;2024-01-15T00:27:04;7.01;83.49
75380;HTU21D;65641;44.714;37.756;2024-01-15T00:28:08;7.01;83.46
75380;HTU21D;65641;44.714;37.756;2024-01-15T00:29:11;7.01;83.36
75380;HTU21D;65641;44.714;37.756;2024-01-15T00:30:33;7.02;83.26
75380;HTU21D;65641;44.714;37.756;2024-01-15T00:31:37;7.02;83.39
75380;HTU21D;65641;44.714;37.756;2024-01-15T00:32:59;7.01;83.33
75380;HTU21D;65641;44.714;37.756;2024-01-15T00:34:03;7.02;83.29
75380;HTU21D;65641;44.714;37.756;2024-01-15T00:35:08;7.02;83.18
75380;HTU21D;65641;44.714;37.756;2024-01-15T00:36:11;7.01;83.23
75380;HTU21D;65641;44.714;37.756;2024-01-15T00:37:15;7.01;83.25
75380;HTU21D;65641;44.714;37.756;2024-01-15T00:38:18;7.00;83.18
75380;HTU21D;65641;44.714;37.756;2024-01-15T00:40:45;6.99;83.16
75380;HTU21D;65641;44.714;37.756;2024-01-15T00:41:50;6.98;83.14
75380;HTU21D;65641;44.714;37.756;2024-01-15T00:42:53;6.98;83.10
75380;HTU21D;65641;44.714;37.756;2024-01-15T00:43:57;6.97;83.13
75380;HTU21D;65641;44.714;37.756;2024-01-15T00:45:01;6.96;83.10
75380;HTU21D;65641;44.714;37.756;2024-01-15T00:46:07;6.95;83.16
75380;HTU21D;65641;44.714;37.756;2024-01-15T00:47:11;6.94;83.23
75380;HTU21D;65641;44.714;37.756;2024-01-15T00:48:15;6.93;83.16
75380;HTU21D;65641;44.714;37.756;2024-01-15T00:49:19;6.94;83.19
75380;HTU21D;65641;44.714;37.756;2024-01-15T00:51:47;6.94;83.36
75380;HTU21D;65641;44.714;37.756;2024-01-15T00:52:50;6.94;83.57
75380;HTU21D;65641;44.714;37.756;2024-01-15T00:53:54;6.93;83.53
75380;HTU21D;65641;44.714;37.756;2024-01-15T00:54:57;6.94;83.35
75380;HTU21D;65641;44.714;37.756;2024-01-15T00:56:01;6.94;83.29
75380;HTU21D;65641;44.714;37.756;2024-01-15T00:57:06;6.95;83.57
75380;HTU21D;65641;44.714;37.756;2024-01-15T00:58:10;6.95;83.57
75380;HTU21D;65641;44.714;37.756;2024-01-15T00:59:32;6.96;83.53
75380;HTU21D;65641;44.714;37.756;2024-01-15T01:00:35;6.96;83.49
75380;HTU21D;65641;44.714;37.756;2024-01-15T01:01:40;6.96;83.42
75380;HTU21D;65641;44.714;37.756;2024-01-15T01:03:04;6.98;83.36
75380;HTU21D;65641;44.714;37.756;2024-01-15T01:04:10;6.98;83.32
75380;HTU21D;65641;44.714;37.756;2024-01-15T01:05:14;6.99;83.26
75380;HTU21D;65641;44.714;37.756;2024-01-15T01:06:19;6.99;83.14
75380;HTU21D;65641;44.714;37.756;2024-01-15T01:07:23;7.00;83.05
75380;HTU21D;65641;44.714;37.756;2024-01-15T01:08:26;7.00;83.07
75380;HTU21D;65641;44.714;37.756;2024-01-15T01:09:32;7.02;83.01
75380;HTU21D;65641;44.714;37.756;2024-01-15T01:10:37;7.01;82.99
75380;HTU21D;65641;44.714;37.756;2024-01-15T01:11:40;7.04;82.84
75380;HTU21D;65641;44.714;37.756;2024-01-15T01:12:43;7.05;82.78
75380;HTU21D;65641;44.714;37.756;2024-01-15T01:14:06;7.07;82.61
75380;HTU21D;65641;44.714;37.756;2024-01-15T01:15:10;7.07;82.61
75380;HTU21D;65641;44.714;37.756;2024-01-15T01:16:14;7.09;82.56
75380;HTU21D;65641;44.714;37.756;2024-01-15T01:18:40;7.09;81.90
75380;HTU21D;65641;44.714;37.756;2024-01-15T01:19:44;7.11;82.02
75380;HTU21D;65641;44.714;37.756;2024-01-15T01:20:48;7.11;82.32
75380;HTU21D;65641;44.714;37.756;2024-01-15T01:21:51;7.13;82.29
75380;HTU21D;65641;44.714;37.756;2024-01-15T01:22:56;7.12;82.23
75380;HTU21D;65641;44.714;37.756;2024-01-15T01:23:59;7.13;82.29
75380;HTU21D;65641;44.714;37.756;2024-01-15T01:25:03;7.12;82.31
75380;HTU21D;65641;44.714;37.756;2024-01-15T01:26:07;7.13;82.26
75380;HTU21D;65641;44.714;37.756;2024-01-15T01:27:11;7.13;82.24
75380;HTU21D;65641;44.714;37.756;2024-01-15T01:28:14;7.13;82.25
75380;HTU21D;65641;44.714;37.756;2024-01-15T01:29:18;7.13;82.26
75380;HTU21D;65641;44.714;37.756;2024-01-15T01:30:22;7.13;82.20
75380;HTU21D;65641;44.714;37.756;2024-01-15T01:31:26;7.13;82.20
75380;HTU21D;65641;44.714;37.756;2024-01-15T01:32:31;7.14;82.22
75380;HTU21D;65641;44.714;37.756;2024-01-15T01:33:35;7.13;82.13
75380;HTU21D;65641;44.714;37.756;2024-01-15T01:34:42;7.13;82.21
75380;HTU21D;65641;44.714;37.756;2024-01-15T01:35:45;7.13;82.19
75380;HTU21D;65641;44.714;37.756;2024-01-15T01:36:50;7.12;82.17
75380;HTU21D;65641;44.714;37.756;2024-01-15T01:37:54;7.12;82.27
75380;HTU21D;65641;44.714;37.756;2024-01-15T01:38:58;7.11;82.30
75380;HTU21D;65641;44.714;37.756;2024-01-15T01:40:02;7.12;82.33
75380;HTU21D;65641;44.714;37.756;2024-01-15T01:41:06;7.11;82.32
75380;HTU21D;65641;44.714;37.756;2024-01-15T01:42:10;7.11;82.36
75380;HTU21D;65641;44.714;37.756;2024-01-15T01:43:15;7.10;82.34
75380;HTU21D;65641;44.714;37.756;2024-01-15T01:44:18;7.09;82.44
75380;HTU21D;65641;44.714;37.756;2024-01-15T01:45:22;7.09;82.55
75380;HTU21D;65641;44.714;37.756;2024-01-15T01:46:28;7.08;82.58
75380;HTU21D;65641;44.714;37.756;2024-01-15T01:47:32;7.07;82.65
75380;HTU21D;65641;44.714;37.756;2024-01-15T01:48:37;7.04;82.71
75380;HTU21D;65641;44.714;37.756;2024-01-15T01:49:41;7.03;82.72
75380;HTU21D;65641;44.714;37.756;2024-01-15T01:50:46;7.01;82.72
75380;HTU21D;65641;44.714;37.756;2024-01-15T01:51:50;7.00;82.76
75380;HTU21D;65641;44.714;37.756;2024-01-15T01:52:54;7.00;82.78
75380;HTU21D;65641;44.714;37.756;2024-01-15T01:54:00;6.99;82.69
75380;HTU21D;65641;44.714;37.756;2024-01-15T01:55:04;7.00;82.65
75380;HTU21D;65641;44.714;37.756;2024-01-15T01:56:28;6.99;82.78
75380;HTU21D;65641;44.714;37.756;2024-01-15T01:57:33;6.99;82.74
75380;HTU21D;65641;44.714;37.756;2024-01-15T01:58:37;6.99;82.80
75380;HTU21D;65641;44.714;37.756;2024-01-15T01:59:41;7.00;82.82
75380;HTU21D;65641;44.714;37.756;2024-01-15T02:00:46;6.99;82.75
75380;HTU21D;65641;44.714;37.756;2024-01-15T02:01:51;7.02;82.77
75380;HTU21D;65641;44.714;37.756;2024-01-15T02:02:56;7.02;82.73
75380;HTU21D;65641;44.714;37.756;2024-01-15T02:04:00;7.03;82.70
75380;HTU21D;65641;44.714;37.756;2024-01-15T02:06:27;7.05;82.57
75380;HTU21D;65641;44.714;37.756;2024-01-15T02:07:31;7.07;82.55
75380;HTU21D;65641;44.714;37.756;2024-01-15T02:08:35;7.07;82.52
75380;HTU21D;65641;44.714;37.756;2024-01-15T02:09:39;7.07;82.50
75380;HTU21D;65641;44.714;37.756;2024-01-15T02:10:43;7.09;82.45
75380;HTU21D;65641;44.714;37.756;2024-01-15T02:12:06;7.11;82.38
75380;HTU21D;65641;44.714;37.756;2024-01-15T02:13:28;7.14;82.40
75380;HTU21D;65641;44.714;37.756;2024-01-15T02:14:34;7.13;82.36
75380;HTU21D;65641;44.714;37.756;2024-01-15T02:15:38;7.13;82.35
75380;HTU21D;65641;44.714;37.756;2024-01-15T02:16:42;7.14;82.28
75380;HTU21D;65641;44.714;37.756;2024-01-15T02:18:01;7.16;82.28
75380;HTU21D;65641;44.714;37.756;2024-01-15T02:19:06;7.18;82.31
75380;HTU21D;65641;44.714;37.756;2024-01-15T02:20:10;7.19;82.24
75380;HTU21D;65641;44.714;37.756;2024-01-15T02:21:14;7.19;82.23
75380;HTU21D;65641;44.714;37.756;2024-01-15T02:22:17;7.22;82.16
75380;HTU21D;65641;44.714;37.756;2024-01-15T02:23:20;7.22;82.15
75380;HTU21D;65641;44.714;37.756;2024-01-15T02:24:26;7.22;82.17
75380;HTU21D;65641;44.714;37.756;2024-01-15T02:25:29;7.24;82.20
75380;HTU21D;65641;44.714;37.756;2024-01-15T02:26:33;7.25;82.12
75380;HTU21D;65641;44.714;37.756;2024-01-15T02:27:39;7.26;81.87
75380;HTU21D;65641;44.714;37.756;2024-01-15T02:28:43;7.25;82.04
75380;HTU21D;65641;44.714;37.756;2024-01-15T02:29:48;7.26;82.01
75380;HTU21D;65641;44.714;37.756;2024-01-15T02:30:51;7.27;82.04
75380;HTU21D;65641;44.714;37.756;2024-01-15T02:31:55;7.27;82.06
75380;HTU21D;65641;44.714;37.756;2024-01-15T02:32:59;7.29;82.07
75380;HTU21D;65641;44.714;37.756;2024-01-15T02:34:02;7.29;82.05
75380;HTU21D;65641;44.714;37.756;2024-01-15T02:35:06;7.30;82.09
75380;HTU21D;65641;44.714;37.756;2024-01-15T02:36:10;7.32;82.06
75380;HTU21D;65641;44.714;37.756;2024-01-15T02:37:13;7.32;82.00
75380;HTU21D;65641;44.714;37.756;2024-01-15T02:38:17;7.32;82.01
75380;HTU21D;65641;44.714;37.756;2024-01-15T02:39:20;7.32;81.97
75380;HTU21D;65641;44.714;37.756;2024-01-15T02:40:24;7.34;82.00
75380;HTU21D;65641;44.714;37.756;2024-01-15T02:41:27;7.34;81.97
75380;HTU21D;65641;44.714;37.756;2024-01-15T02:42:31;7.35;82.05
75380;HTU21D;65641;44.714;37.756;2024-01-15T02:43:34;7.38;81.97
75380;HTU21D;65641;44.714;37.756;2024-01-15T02:46:00;7.38;81.94
75380;HTU21D;65641;44.714;37.756;2024-01-15T02:48:25;7.41;81.94
75380;HTU21D;65641;44.714;37.756;2024-01-15T02:49:29;7.40;81.95
75380;HTU21D;65641;44.714;37.756;2024-01-15T02:50:41;7.41;81.95
75380;HTU21D;65641;44.714;37.756;2024-01-15T02:51:47;7.42;81.91
75380;HTU21D;65641;44.714;37.756;2024-01-15T02:52:51;7.42;82.07
75380;HTU21D;65641;44.714;37.756;2024-01-15T02:53:55;7.44;82.10
75380;HTU21D;65641;44.714;37.756;2024-01-15T02:55:17;7.44;81.98
75380;HTU21D;65641;44.714;37.756;2024-01-15T02:56:20;7.45;81.98
75380;HTU21D;65641;44.714;37.756;2024-01-15T02:58:01;7.46;81.92
75380;HTU21D;65641;44.714;37.756;2024-01-15T02:59:23;7.47;81.75
75380;HTU21D;65641;44.714;37.756;2024-01-15T03:00:26;7.47;81.90
75380;HTU21D;65641;44.714;37.756;2024-01-15T03:01:30;7.48;81.98
75380;HTU21D;65641;44.714;37.756;2024-01-15T03:02:37;7.48;81.94
75380;HTU21D;65641;44.714;37.756;2024-01-15T03:03:48;7.50;81.88
75380;HTU21D;65641;44.714;37.756;2024-01-15T03:04:51;7.50;81.85
75380;HTU21D;65641;44.714;37.756;2024-01-15T03:05:54;7.52;81.87
75380;HTU21D;65641;44.714;37.756;2024-01-15T03:06:58;7.53;81.94
75380;HTU21D;65641;44.714;37.756;2024-01-15T03:08:03;7.53;81.87
75380;HTU21D;65641;44.714;37.756;2024-01-15T03:09:07;7.53;81.84
75380;HTU21D;65641;44.714;37.756;2024-01-15T03:10:10;7.55;81.79
75380;HTU21D;65641;44.714;37.756;2024-01-15T03:11:14;7.55;81.52
75380;HTU21D;65641;44.714;37.756;2024-01-15T03:12:17;7.55;81.69
75380;HTU21D;65641;44.714;37.756;2024-01-15T03:13:27;7.57;81.77
75380;HTU21D;65641;44.714;37.756;2024-01-15T03:21:37;7.58;81.59
75380;HTU21D;65641;44.714;37.756;2024-01-15T03:22:59;7.57;81.56
75380;HTU21D;65641;44.714;37.756;2024-01-15T03:24:03;7.56;81.54
75380;HTU21D;65641;44.714;37.756;2024-01-15T03:25:07;7.58;81.52
75380;HTU21D;65641;44.714;37.756;2024-01-15T03:26:10;7.57;81.56
75380;HTU21D;65641;44.714;37.756;2024-01-15T03:27:14;7.58;81.63
75380;HTU21D;65641;44.714;37.756;2024-01-15T03:28:17;7.57;81.50
75380;HTU21D;65641;44.714;37.756;2024-01-15T03:29:21;7.58;81.60
75380;HTU21D;65641;44.714;37.756;2024-01-15T03:30:25;7.58;81.62
75380;HTU21D;65641;44.714;37.756;2024-01-15T03:31:28;7.58;81.64
75380;HTU21D;65641;44.714;37.756;2024-01-15T03:32:32;7.58;81.68
75380;HTU21D;65641;44.714;37.756;2024-01-15T03:33:35;7.57;81.62
75380;HTU21D;65641;44.714;37.756;2024-01-15T03:34:39;7.58;81.59
75380;HTU21D;65641;44.714;37.756;2024-01-15T03:35:42;7.59;81.63
75380;HTU21D;65641;44.714;37.756;2024-01-15T03:37:04;7.57;81.52
75380;HTU21D;65641;44.714;37.756;2024-01-15T03:38:07;7.58;81.60
75380;HTU21D;65641;44.714;37.756;2024-01-15T03:39:11;7.57;81.64
75380;HTU21D;65641;44.714;37.756;2024-01-15T03:40:14;7.59;81.59
75380;HTU21D;65641;44.714;37.756;2024-01-15T03:41:22;7.60;81.59
75380;HTU21D;65641;44.714;37.756;2024-01-15T03:42:25;7.58;81.60
75380;HTU21D;65641;44.714;37.756;2024-01-15T03:43:29;7.58;81.53
75380;HTU21D;65641;44.714;37.756;2024-01-15T03:44:32;7.58;81.62
75380;HTU21D;65641;44.714;37.756;2024-01-15T03:45:35;7.58;81.61
75380;HTU21D;65641;44.714;37.756;2024-01-15T03:46:38;7.58;81.53
75380;HTU21D;65641;44.714;37.756;2024-01-15T03:49:06;7.57;81.53
75380;HTU21D;65641;44.714;37.756;2024-01-15T03:50:10;7.57;81.49
75380;HTU21D;65641;44.714;37.756;2024-01-15T03:51:18;7.57;81.66
75380;HTU21D;65641;44.714;37.756;2024-01-15T03:52:22;7.57;81.76
75380;HTU21D;65641;44.714;37.756;2024-01-15T03:53:25;7.54;81.75
75380;HTU21D;65641;44.714;37.756;2024-01-15T03:54:28;7.54;81.76
75380;HTU21D;65641;44.714;37.756;2024-01-15T03:55:32;7.53;81.89
75380;HTU21D;65641;44.714;37.756;2024-01-15T03:56:38;7.53;81.91
75380;HTU21D;65641;44.714;37.756;2024-01-15T03:57:41;7.52;81.87
75380;HTU21D;65641;44.714;37.756;2024-01-15T03:58:45;7.50;81.92
75380;HTU21D;65641;44.714;37.756;2024-01-15T03:59:48;7.49;81.98
75380;HTU21D;65641;44.714;37.756;2024-01-15T04:01:10;7.47;82.00
75380;HTU21D;65641;44.714;37.756;2024-01-15T04:02:13;7.46;82.01
75380;HTU21D;65641;44.714;37.756;2024-01-15T04:03:17;7.43;81.99
75380;HTU21D;65641;44.714;37.756;2024-01-15T04:04:23;7.42;82.04
75380;HTU21D;65641;44.714;37.756;2024-01-15T04:05:26;7.40;82.04
75380;HTU21D;65641;44.714;37.756;2024-01-15T04:06:30;7.37;82.07
75380;HTU21D;65641;44.714;37.756;2024-01-15T04:07:33;7.34;82.19
75380;HTU21D;65641;44.714;37.756;2024-01-15T04:08:36;7.31;82.24
75380;HTU21D;65641;44.714;37.756;2024-01-15T04:09:40;7.30;82.39
75380;HTU21D;65641;44.714;37.756;2024-01-15T04:11:02;7.28;82.42
75380;HTU21D;65641;44.714;37.756;2024-01-15T04:12:05;7.25;82.58
75380;HTU21D;65641;44.714;37.756;2024-01-15T04:13:09;7.24;82.62
75380;HTU21D;65641;44.714;37.756;2024-01-15T04:14:30;7.22;82.66
75380;HTU21D;65641;44.714;37.756;2024-01-15T04:15:33;7.19;82.72
75380;HTU21D;65641;44.714;37.756;2024-01-15T04:16:37;7.19;82.71
75380;HTU21D;65641;44.714;37.756;2024-01-15T04:17:41;7.16;82.79
75380;HTU21D;65641;44.714;37.756;2024-01-15T04:18:44;7.16;82.75
75380;HTU21D;65641;44.714;37.756;2024-01-15T04:19:47;7.15;82.84
75380;HTU21D;65641;44.714;37.756;2024-01-15T04:20:53;7.13;82.95
75380;HTU21D;65641;44.714;37.756;2024-01-15T04:21:57;7.11;82.94
75380;HTU21D;65641;44.714;37.756;2024-01-15T04:23:00;7.10;82.86
75380;HTU21D;65641;44.714;37.756;2024-01-15T04:24:03;7.10;82.95
75380;HTU21D;65641;44.714;37.756;2024-01-15T04:25:07;7.09;83.01
75380;HTU21D;65641;44.714;37.756;2024-01-15T04:26:10;7.07;83.04
75380;HTU21D;65641;44.714;37.756;2024-01-15T04:27:14;7.04;83.11
75380;HTU21D;65641;44.714;37.756;2024-01-15T04:29:39;7.01;83.23
75380;HTU21D;65641;44.714;37.756;2024-01-15T04:30:46;6.98;83.32
75380;HTU21D;65641;44.714;37.756;2024-01-15T04:31:49;6.96;83.40
75380;HTU21D;65641;44.714;37.756;2024-01-15T04:33:11;6.95;83.34
75380;HTU21D;65641;44.714;37.756;2024-01-15T04:34:15;6.93;83.54
75380;HTU21D;65641;44.714;37.756;2024-01-15T04:35:18;6.90;83.60
75380;HTU21D;65641;44.714;37.756;2024-01-15T04:36:22;6.89;83.56
75380;HTU21D;65641;44.714;37.756;2024-01-15T04:37:26;6.88;83.70
75380;HTU21D;65641;44.714;37.756;2024-01-15T04:38:29;6.87;83.71
75380;HTU21D;65641;44.714;37.756;2024-01-15T04:39:32;6.86;83.68
75380;HTU21D;65641;44.714;37.756;2024-01-15T04:40:36;6.85;83.79
75380;HTU21D;65641;44.714;37.756;2024-01-15T04:41:39;6.84;83.74
75380;HTU21D;65641;44.714;37.756;2024-01-15T04:42:43;6.83;83.71
75380;HTU21D;65641;44.714;37.756;2024-01-15T04:43:48;6.84;83.74
75380;HTU21D;65641;44.714;37.756;2024-01-15T04:44:52;6.82;83.78
75380;HTU21D;65641;44.714;37.756;2024-01-15T04:45:55;6.81;83.91
75380;HTU21D;65641;44.714;37.756;2024-01-15T04:46:59;6.80;83.90
75380;HTU21D;65641;44.714;37.756;2024-01-15T04:48:03;6.79;83.99
75380;HTU21D;65641;44.714;37.756;2024-01-15T04:49:06;6.79;84.05
75380;HTU21D;65641;44.714;37.756;2024-01-15T04:50:10;6.78;84.07
75380;HTU21D;65641;44.714;37.756;2024-01-15T04:51:14;6.76;84.05
75380;HTU21D;65641;44.714;37.756;2024-01-15T04:52:17;6.75;84.05
75380;HTU21D;65641;44.714;37.756;2024-01-15T04:53:20;6.75;84.03
75380;HTU21D;65641;44.714;37.756;2024-01-15T04:54:24;6.73;84.07
75380;HTU21D;65641;44.714;37.756;2024-01-15T04:55:27;6.73;84.10
75380;HTU21D;65641;44.714;37.756;2024-01-15T04:56:31;6.72;84.12
75380;HTU21D;65641;44.714;37.756;2024-01-15T04:57:34;6.72;84.16
75380;HTU21D;65641;44.714;37.756;2024-01-15T04:58:37;6.72;84.22
75380;HTU21D;65641;44.714;37.756;2024-01-15T04:59:41;6.72;84.21
75380;HTU21D;65641;44.714;37.756;2024-01-15T05:00:44;6.73;84.21
75380;HTU21D;65641;44.714;37.756;2024-01-15T05:01:48;6.72;84.27
75380;HTU21D;65641;44.714;37.756;2024-01-15T05:02:52;6.73;84.19
75380;HTU21D;65641;44.714;37.756;2024-01-15T05:03:55;6.74;84.21
75380;HTU21D;65641;44.714;37.756;2024-01-15T05:05:01;6.75;84.14
75380;HTU21D;65641;44.714;37.756;2024-01-15T05:06:05;6.78;84.08
75380;HTU21D;65641;44.714;37.756;2024-01-15T05:07:09;6.80;83.97
75380;HTU21D;65641;44.714;37.756;2024-01-15T05:08:12;6.81;84.07
75380;HTU21D;65641;44.714;37.756;2024-01-15T05:09:34;6.83;84.02
75380;HTU21D;65641;44.714;37.756;2024-01-15T05:10:37;6.85;83.92
75380;HTU21D;65641;44.714;37.756;2024-01-15T05:11:41;6.87;83.89
75380;HTU21D;65641;44.714;37.756;2024-01-15T05:12:44;6.87;83.83
75380;HTU21D;65641;44.714;37.756;2024-01-15T05:13:48;6.89;83.74
75380;HTU21D;65641;44.714;37.756;2024-01-15T05:14:51;6.93;83.70
75380;HTU21D;65641;44.714;37.756;2024-01-15T05:15:55;6.93;83.67
75380;HTU21D;65641;44.714;37.756;2024-01-15T05:16:58;6.95;83.60
75380;HTU21D;65641;44.714;37.756;2024-01-15T05:18:02;6.97;83.53
75380;HTU21D;65641;44.714;37.756;2024-01-15T05:19:07;6.99;83.48
75380;HTU21D;65641;44.714;37.756;2024-01-15T05:20:11;7.01;83.42
75380;HTU21D;65641;44.714;37.756;2024-01-15T05:21:14;7.02;83.32
75380;HTU21D;65641;44.714;37.756;2024-01-15T05:22:18;7.04;83.26
75380;HTU21D;65641;44.714;37.756;2024-01-15T05:23:21;7.08;83.24
75380;HTU21D;65641;44.714;37.756;2024-01-15T05:24:25;7.11;83.12
75380;HTU21D;65641;44.714;37.756;2024-01-15T05:25:29;7.14;83.04
75380;HTU21D;65641;44.714;37.756;2024-01-15T05:26:33;7.17;82.97
75380;HTU21D;65641;44.714;37.756;2024-01-15T05:27:36;7.18;82.88
75380;HTU21D;65641;44.714;37.756;2024-01-15T05:28:43;7.20;82.89
75380;HTU21D;65641;44.714;37.756;2024-01-15T05:29:46;7.24;82.84
75380;HTU21D;65641;44.714;37.756;2024-01-15T05:30:50;7.26;82.83
75380;HTU21D;65641;44.714;37.756;2024-01-15T05:31:54;7.29;82.75
75380;HTU21D;65641;44.714;37.756;2024-01-15T05:33:01;7.32;82.58
75380;HTU21D;65641;44.714;37.756;2024-01-15T05:34:04;7.37;82.58
75380;HTU21D;65641;44.714;37.756;2024-01-15T05:35:07;7.41;82.46
75380;HTU21D;65641;44.714;37.756;2024-01-15T05:36:11;7.44;82.30
75380;HTU21D;65641;44.714;37.756;2024-01-15T05:37:14;7.48;82.17
75380;HTU21D;65641;44.714;37.756;2024-01-15T05:38:17;7.52;81.99
75380;HTU21D;65641;44.714;37.756;2024-01-15T05:39:20;7.55;81.88
75380;HTU21D;65641;44.714;37.756;2024-01-15T05:40:25;7.59;81.76
75380;HTU21D;65641;44.714;37.756;2024-01-15T05:41:28;7.64;81.70
75380;HTU21D;65641;44.714;37.756;2024-01-15T05:42:32;7.65;81.59
75380;HTU21D;65641;44.714;37.756;2024-01-15T05:43:35;7.69;81.52
75380;HTU21D;65641;44.714;37.756;2024-01-15T05:44:38;7.72;81.55
75380;HTU21D;65641;44.714;37.756;2024-01-15T05:45:43;7.74;81.47
75380;HTU21D;65641;44.714;37.756;2024-01-15T05:46:47;7.77;81.34
75380;HTU21D;65641;44.714;37.756;2024-01-15T05:47:51;7.79;81.37
75380;HTU21D;65641;44.714;37.756;2024-01-15T05:48:54;7.83;81.23
75380;HTU21D;65641;44.714;37.756;2024-01-15T05:49:58;7.85;81.17
75380;HTU21D;65641;44.714;37.756;2024-01-15T05:51:01;7.88;81.14
75380;HTU21D;65641;44.714;37.756;2024-01-15T05:52:05;7.90;80.89
75380;HTU21D;65641;44.714;37.756;2024-01-15T05:53:08;7.93;80.85
75380;HTU21D;65641;44.714;37.756;2024-01-15T05:54:11;7.97;80.91
75380;HTU21D;65641;44.714;37.756;2024-01-15T05:55:14;8.00;80.83
75380;HTU21D;65641;44.714;37.756;2024-01-15T05:56:19;8.03;80.72
75380;HTU21D;65641;44.714;37.756;2024-01-15T05:57:41;8.05;80.58
75380;HTU21D;65641;44.714;37.756;2024-01-15T05:58:44;8.07;80.58
75380;HTU21D;65641;44.714;37.756;2024-01-15T05:59:47;8.12;80.40
75380;HTU21D;65641;44.714;37.756;2024-01-15T06:00:51;8.16;80.29
75380;HTU21D;65641;44.714;37.756;2024-01-15T06:01:54;8.18;80.26
75380;HTU21D;65641;44.714;37.756;2024-01-15T06:02:57;8.17;80.26
75380;HTU21D;65641;44.714;37.756;2024-01-15T06:04:00;8.17;80.38
75380;HTU21D;65641;44.714;37.756;2024-01-15T06:05:04;8.17;80.49
75380;HTU21D;65641;44.714;37.756;2024-01-15T06:06:08;8.19;80.52
75380;HTU21D;65641;44.714;37.756;2024-01-15T06:07:12;8.18;80.44
75380;HTU21D;65641;44.714;37.756;2024-01-15T06:08:15;8.18;80.40
75380;HTU21D;65641;44.714;37.756;2024-01-15T06:09:18;8.19;80.53
75380;HTU21D;65641;44.714;37.756;2024-01-15T06:10:21;8.19;80.49
75380;HTU21D;65641;44.714;37.756;2024-01-15T06:11:30;8.19;80.59
75380;HTU21D;65641;44.714;37.756;2024-01-15T06:12:33;8.18;80.63
75380;HTU21D;65641;44.714;37.756;2024-01-15T06:13:37;8.19;80.56
75380;HTU21D;65641;44.714;37.756;2024-01-15T06:14:40;8.21;80.62
75380;HTU21D;65641;44.714;37.756;2024-01-15T06:18:30;8.33;80.38
75380;HTU21D;65641;44.714;37.756;2024-01-15T06:19:34;8.39;80.29
75380;HTU21D;65641;44.714;37.756;2024-01-15T06:20:37;8.45;80.14
75380;HTU21D;65641;44.714;37.756;2024-01-15T06:21:41;8.52;79.80
75380;HTU21D;65641;44.714;37.756;2024-01-15T06:24:07;8.66;79.44
75380;HTU21D;65641;44.714;37.756;2024-01-15T06:25:13;8.72;79.23
75380;HTU21D;65641;44.714;37.756;2024-01-15T06:26:16;8.78;79.01
75380;HTU21D;65641;44.714;37.756;2024-01-15T06:27:20;8.83;78.73
75380;HTU21D;65641;44.714;37.756;2024-01-15T06:28:27;8.88;78.56
75380;HTU21D;65641;44.714;37.756;2024-01-15T06:29:30;8.91;78.62
75380;HTU21D;65641;44.714;37.756;2024-01-15T06:30:33;8.91;78.24
75380;HTU21D;65641;44.714;37.756;2024-01-15T06:31:37;8.93;78.05
75380;HTU21D;65641;44.714;37.756;2024-01-15T06:32:40;8.95;78.44
75380;HTU21D;65641;44.714;37.756;2024-01-15T06:33:43;8.94;78.27
75380;HTU21D;65641;44.714;37.756;2024-01-15T06:34:50;8.97;78.39
75380;HTU21D;65641;44.714;37.756;2024-01-15T06:35:54;8.97;78.24
75380;HTU21D;65641;44.714;37.756;2024-01-15T06:38:19;8.98;78.20
75380;HTU21D;65641;44.714;37.756;2024-01-15T06:39:23;8.94;78.37
75380;HTU21D;65641;44.714;37.756;2024-01-15T06:40:27;8.95;78.41
75380;HTU21D;65641;44.714;37.756;2024-01-15T06:41:30;8.94;78.43
75380;HTU21D;65641;44.714;37.756;2024-01-15T06:42:33;8.92;78.53
75380;HTU21D;65641;44.714;37.756;2024-01-15T06:43:36;8.90;78.64
75380;HTU21D;65641;44.714;37.756;2024-01-15T06:44:39;8.88;78.63
75380;HTU21D;65641;44.714;37.756;2024-01-15T06:45:43;8.86;78.69
75380;HTU21D;65641;44.714;37.756;2024-01-15T06:46:47;8.82;78.82
75380;HTU21D;65641;44.714;37.756;2024-01-15T06:47:50;8.80;78.90
75380;HTU21D;65641;44.714;37.756;2024-01-15T06:48:53;8.76;79.00
75380;HTU21D;65641;44.714;37.756;2024-01-15T06:49:56;8.74;79.19
75380;HTU21D;65641;44.714;37.756;2024-01-15T06:51:18;8.72;79.27
75380;HTU21D;65641;44.714;37.756;2024-01-15T06:52:21;8.71;79.37
75380;HTU21D;65641;44.714;37.756;2024-01-15T06:53:24;8.67;79.49
75380;HTU21D;65641;44.714;37.756;2024-01-15T06:54:27;8.66;79.50
75380;HTU21D;65641;44.714;37.756;2024-01-15T06:55:31;8.67;79.55
75380;HTU21D;65641;44.714;37.756;2024-01-15T06:56:34;8.71;79.43
75380;HTU21D;65641;44.714;37.756;2024-01-15T06:57:37;8.70;79.42
75380;HTU21D;65641;44.714;37.756;2024-01-15T06:58:40;8.70;79.15
75380;HTU21D;65641;44.714;37.756;2024-01-15T06:59:43;8.68;79.28
75380;HTU21D;65641;44.714;37.756;2024-01-15T07:00:46;8.70;79.37
75380;HTU21D;65641;44.714;37.756;2024-01-15T07:01:50;8.68;79.42
75380;HTU21D;65641;44.714;37.756;2024-01-15T07:02:53;8.70;79.39
75380;HTU21D;65641;44.714;37.756;2024-01-15T07:03:56;8.70;79.39
75380;HTU21D;65641;44.714;37.756;2024-01-15T07:06:40;8.66;79.45
75380;HTU21D;65641;44.714;37.756;2024-01-15T07:07:43;8.64;79.46
75380;HTU21D;65641;44.714;37.756;2024-01-15T07:08:46;8.63;79.59
75380;HTU21D;65641;44.714;37.756;2024-01-15T07:10:08;8.65;79.67